Terminal Aerodrome Forecast
Issued by NWS

Home | Current Version | Previous Version | Text Only | Print | Product List | Glossary On
Versions: 1 2 3 4 5 6 7 8 9 10 11 12 13 14 15 16 17 18 19 20 21 22 23 24 25 26 27 28 29
000
FTUS43 KDVN 230800 AAB
TAFCID
TAF AMD
KCID 230850Z 2309/2406 VRB03KT 5SM BR VCTS BKN040CB
      TEMPO 2309/2312 2SM BR BKN022
     FM231400 13006KT 6SM BR VCTS BKN030CB
     FM231600 15007KT P6SM BKN050=

USA.gov is the U.S. government's official web portal to all federal, state and local government web resources and services.